Terminal Aerodrome Forecast
Issued by NWS Jackson, KY

Home | Current Version | Previous Version | Text Only | Print | Product List | Glossary On
Versions: 1 2 3 4 5 6 7 8 9 10 11 12 13 14 15 16 17 18 19 20 21 22 23 24
310
FTUS43 KJKL 250322 AAB
TAFJKL
TAF AMD
KJKL 250322Z 2503/2524 00000KT 4SM BR SCT002
      TEMPO 2503/2507 1SM BR VV002
     FM251300 03003KT P6SM SCT030=

USA.gov is the U.S. government's official web portal to all federal, state and local government web resources and services.